AirNav   Everest Fuels
 
 601 users online  

MI26 Cloud 9 Airport
Parkers Corners, Michigan, USA

GOING TO PARKERS CORNERS?


FAA INFORMATION EFFECTIVE 05 DECEMBER 2019

Location

FAA Identifier: MI26
Lat/Long: 42-33-05.4000N 084-05-53.8400W
42-33.090000N 084-05.897333W
42.5515000,-84.0982889
(estimated)
Elevation: 930 ft. / 283 m (estimated)
Variation: 05W (1990)
From city: 1 mile SE of PARKERS CORNERS, MI
Time zone: UTC -5 (UTC -4 during Daylight Saving Time)
Zip code: 48137

Airport Operations

Airport use: Private use. Permission required prior to landing
Activation date: 12/1992
Control tower: no
ARTCC: CLEVELAND CENTER
FSS: LANSING FLIGHT SERVICE STATION
Attendance: UNATNDD
Wind indicator: yes
Segmented circle: no

Airport Communications

CTAF: 122.75
WX AWOS-3 at OZW (7 nm NE): 118.875 (517-546-4450)
WX AWOS-3 at TEW (14 nm W): 119.425 (517-676-5607)

Nearby radio navigation aids

VOR radial/distance  VOR name  Freq  Var
JXNr047/23.7JACKSON VOR/DME109.6005W
SVMr294/23.9SALEM VORTAC114.3003W
FNTr218/29.3FLINT VORTAC116.9006W
DXOr308/38.3DETROIT VOR/DME113.4006W

 
NDB name  Hdg/Dist  Freq  Var  ID
TECUMSEH349/32.423906WTCU - -.-. ..-

Airport Services

Runway Information

Runway 6/24

Dimensions: 3450 x 150 ft. / 1052 x 46 m
Surface: turf
RUNWAY 6  RUNWAY 24
Traffic pattern: leftleft
Obstructions: nonetrees

Airport Ownership and Management from official FAA records

Ownership: Privately-owned
Owner: TRACY TILLMAN & LISA COLLETTI
9830 W COON LAKE ROAD
WEBBERVILLE, MI 48892-9001
Phone (248) 921-0092
Manager: TRACY TILLMAN
9830 W COON LAKE RD
WEBBERVILLE, MI 48892-9001
Phone (248) 921-0092

Airport Operational Statistics

Aircraft based on the field: 6
Single engine airplanes: 5
Gliders airplanes: 1
    
Aircraft operations: 200/year
100% local general aviation

Additional Remarks

GLD TOWING AND FLIGHT T ACT.
FOR CD CTC DETROIT APCH AT 800-499-8181.

Instrument Procedures

There are no published instrument procedures at MI26.

Some nearby airports with instrument procedures:

KOZW - Livingston County Spencer J Hardy Airport (7 nm NE)
KTEW - Mason Jewett Field Airport (14 nm W)
9G2 - Price's Airport (21 nm NE)
Y47 - Oakland Southwest Airport (21 nm E)
KJXN - Jackson County Airport-Reynolds Field (24 nm SW)
 
Loc | Ops | Rwys | IFR | FBO | Links
Com | Nav | Svcs | Stats | Notes
Aerial photo
WARNING: Photo may not be current or correct
Aerial photo of MI26 (Cloud 9 Airport)
Taken in 2006

Do you have a better or more recent aerial photo of Cloud 9 Airport that you would like to share? If so, please send us your photo.

 
Sectional chart

 
Airport distance calculator
Flying to Cloud 9 Airport? Find the distance to fly.

From to MI26

Sunrise and sunset
Times for 10-Dec-2019
 Local
(UTC-5)
 Zulu
(UTC)
Morning civil twilight07:2412:24
Sunrise07:5612:56
Sunset17:0222:02
Evening civil twilight17:3422:34

Current date and time
Zulu (UTC)  10-Dec-2019 06:03:05
Local (UTC-5)  10-Dec-2019 01:03:05
 
METAR
KOZW 
7nm NE 
100556Z AUTO 27018G24KT 10SM OVC021 03/M01 A2961 RMK AO2 T00281009 10091 20028 400950028
KTEW 
14nm W 
100556Z AUTO 28020G28KT 10SM OVC019 02/M01 A2963 RMK AO2 T00181010 10083 20018 400890018
TAF
KJXN 
24nm SW 
100527Z 1006/1106 26015G25KT P6SM VCSH OVC015 FM100700 28014G24KT 4SM -SHSN OVC015 TEMPO 1007/1010 1SM -SHSN BR OVC009 FM101000 28012G22KT P6SM -SHSN OVC025 FM101800 28012G20KT P6SM VCSH BKN030
KLAN 
26nm NW 
100527Z 1006/1106 28014G24KT P6SM VCSH OVC025 TEMPO 1006/1008 1SM -SHSN BR OVC009 FM100900 28012G22KT P6SM -SHSN OVC025 FM101800 28012G20KT P6SM VCSH BKN030
KFNT 
29nm NE 
100539Z 1006/1106 27016G26KT P6SM OVC022 FM101100 29012G22KT P6SM -SHSN SCT025 OVC035 FM101800 28014KT P6SM BKN045 FM110000 26010KT P6SM SCT045
NOTAMs
Click for the latest NOTAMs
NOTAMs are issued by the DoD/FAA and will open in a separate window not controlled by AirNav.

 

 
 

Would you like to see your business listed on this page?

 If your business provides an interesting product or service to pilots, flight crews, aircraft, or users of the Cloud 9 Airport, you should consider listing it here.  To start the listing process, click on the button below
 
Add a business
 

Other Pages about Cloud 9 Airport

Update a link
 
Copyright © AirNav, LLC. All rights reserved. Privacy Policy  Contact